Time;durP1;ratioP1;P1;durP2;ratioP2;P2;SDS_P1;SDS_P2;PMS_P1;PMS_P2;Temp;Humidity;BMP_temperature;BMP_pressure;BME280_temperature;BME280_humidity;BME280_pressure;Samples;Min_cycle;Max_cycle;Signal;HPM_P1;HPM_P2
2022/12/24 00:01:44;;;;;;;1.82;1.72;;;;;;;24.13;40.74;99390.75;1880807;75;28200;-54
2022/12/24 00:04:32;;;;;;;1.80;1.50;;;;;;;24.12;40.73;99390.44;1888732;75;28460;-54
2022/12/24 00:07:20;;;;;;;2.10;1.90;;;;;;;24.11;40.73;99396.47;1872236;75;28224;-53
2022/12/24 00:10:10;;;;;;;2.12;1.92;;;;;;;24.13;40.74;99395.70;1869310;75;28168;-54
2022/12/24 00:12:59;;;;;;;2.12;1.90;;;;;;;24.12;40.70;99400.05;1824542;76;28337;-55
2022/12/24 00:15:47;;;;;;;2.25;1.90;;;;;;;24.12;40.65;99400.05;1812744;78;28299;-52
2022/12/24 00:18:36;;;;;;;2.62;2.05;;;;;;;24.13;40.68;99397.08;1843390;76;28263;-53
2022/12/24 00:21:25;;;;;;;2.30;2.10;;;;;;;24.11;40.63;99392.35;1859522;75;28231;-54
2022/12/24 00:24:13;;;;;;;2.50;2.15;;;;;;;24.11;40.62;99393.72;1875956;74;28164;-54
2022/12/24 00:27:02;;;;;;;2.85;2.55;;;;;;;24.11;40.64;99400.58;1884190;75;28109;-49
2022/12/24 00:29:50;;;;;;;3.08;2.12;;;;;;;24.12;40.61;99398.68;1882131;74;28152;-51
2022/12/24 00:32:38;;;;;;;2.30;2.10;;;;;;;24.11;40.56;99408.01;1874628;73;28620;-49
2022/12/24 00:35:27;;;;;;;2.22;2.12;;;;;;;24.12;40.60;99408.28;1868267;75;29222;-51
2022/12/24 00:38:15;;;;;;;2.35;2.25;;;;;;;24.12;40.52;99410.50;1871302;75;28145;-52
2022/12/24 00:41:22;;;;;;;2.20;2.00;;;;;;;24.10;40.54;99420.89;1873811;75;28178;-54
2022/12/24 00:43:58;;;;;;;2.37;2.10;;;;;;;24.11;40.54;99421.16;1891969;75;28156;-52
2022/12/24 00:46:46;;;;;;;3.12;1.80;;;;;;;24.11;40.55;99421.16;1881963;74;28195;-55
2022/12/24 00:49:35;;;;;;;1.87;1.77;;;;;;;24.11;40.50;99417.05;1882993;73;28114;-54
2022/12/24 00:52:24;;;;;;;2.30;2.10;;;;;;;24.10;40.54;99421.42;1880854;75;28191;-56
2022/12/24 00:55:12;;;;;;;2.10;2.00;;;;;;;24.10;40.50;99419.52;1891202;75;28186;-56
2022/12/24 00:58:00;;;;;;;2.10;1.92;;;;;;;24.11;40.46;99431.34;1885549;75;28610;-55
2022/12/24 01:00:48;;;;;;;2.00;1.90;;;;;;;24.10;40.44;99427.75;1887729;74;28198;-51
2022/12/24 01:03:37;;;;;;;2.30;2.15;;;;;;;24.11;40.44;99423.10;1873669;75;28348;-56
2022/12/24 01:06:25;;;;;;;2.70;2.00;;;;;;;24.10;40.42;99423.64;1882119;75;28219;-53
2022/12/24 01:09:13;;;;;;;2.12;1.98;;;;;;;24.11;40.44;99420.36;1879075;74;28278;-54
2022/12/24 01:12:02;;;;;;;2.00;1.90;;;;;;;24.10;40.41;99436.52;1883168;75;28131;-52
2022/12/24 01:14:50;;;;;;;1.82;1.70;;;;;;;24.10;40.41;99431.03;1884722;75;32187;-52
2022/12/24 01:17:39;;;;;;;2.67;1.95;;;;;;;24.10;40.38;99422.80;1889784;75;28147;-54
2022/12/24 01:20:30;;;;;;;2.05;1.85;;;;;;;24.10;40.37;99406.33;1876553;74;28215;-55
2022/12/24 01:23:17;;;;;;;2.00;1.90;;;;;;;24.11;40.34;99434.89;1880025;75;28180;-51
2022/12/24 01:26:06;;;;;;;1.98;1.87;;;;;;;24.12;40.32;99448.92;1883486;75;28205;-56
2022/12/24 01:28:56;;;;;;;1.90;1.80;;;;;;;24.11;40.27;99458.22;1868238;76;28353;-55
2022/12/24 01:31:45;;;;;;;2.33;2.05;;;;;;;24.12;40.34;99452.20;1882900;75;28295;-56
2022/12/24 01:34:35;;;;;;;1.95;1.85;;;;;;;24.10;40.27;99445.59;1879616;75;28244;-55
2022/12/24 01:37:23;;;;;;;1.80;1.70;;;;;;;24.10;40.26;99450.23;1886284;75;28556;-56
2022/12/24 01:43:24;;;;;;;1.90;1.80;;;;;;;24.09;40.28;99441.16;1892674;75;28251;-55
2022/12/24 01:46:21;;;;;;;1.70;1.60;;;;;;;24.07;40.28;99439.74;1881553;75;28153;-52
2022/12/24 01:49:12;;;;;;;1.73;1.63;;;;;;;24.06;40.23;99441.68;1881450;75;28194;-55
2022/12/24 01:52:18;;;;;;;1.87;1.77;;;;;;;24.06;40.25;99454.03;1889572;75;28105;-55
2022/12/24 01:55:10;;;;;;;2.10;1.90;;;;;;;24.07;40.23;99446.60;1885181;74;28183;-55
2022/12/24 01:58:00;;;;;;;1.90;1.80;;;;;;;24.02;40.28;99446.78;1893959;74;28320;-51
2022/12/24 02:00:49;;;;;;;2.33;1.90;;;;;;;24.03;40.26;99468.20;1895730;75;28066;-56
2022/12/24 02:03:37;;;;;;;1.80;1.70;;;;;;;24.06;40.26;99471.86;1892700;75;28101;-56
2022/12/24 02:06:27;;;;;;;1.90;1.80;;;;;;;24.05;40.21;99475.11;1889459;75;28121;-56
2022/12/24 02:09:15;;;;;;;1.80;1.70;;;;;;;24.06;40.17;99459.52;1890767;75;28189;-52
2022/12/24 02:12:06;;;;;;;1.90;1.80;;;;;;;24.05;40.14;99457.27;1890695;75;28574;-59
2022/12/24 02:14:56;;;;;;;1.85;1.77;;;;;;;24.04;40.19;99466.56;1882893;75;28157;-54
2022/12/24 02:18:07;;;;;;;1.85;1.75;;;;;;;24.05;40.11;99460.55;1882589;75;28337;-56
2022/12/24 02:21:19;;;;;;;1.82;1.57;;;;;;;24.05;40.14;99454.53;1888368;75;28208;-56
2022/12/24 02:24:28;;;;;;;2.00;1.90;;;;;;;24.04;40.14;99438.28;1882487;75;28194;-58
2022/12/24 02:27:23;;;;;;;1.70;1.60;;;;;;;24.02;40.16;99437.17;1864265;75;28175;-55
2022/12/24 02:30:23;;;;;;;1.80;1.70;;;;;;;24.00;40.20;99441.23;1888350;75;28230;-57
2022/12/24 02:33:35;;;;;;;1.70;1.60;;;;;;;23.99;40.25;99443.14;1891217;75;28117;-56
2022/12/24 02:36:44;;;;;;;1.72;1.62;;;;;;;24.01;40.15;99443.72;1868526;75;28207;-55
2022/12/24 02:39:55;;;;;;;2.00;1.90;;;;;;;23.97;40.20;99449.95;1888136;75;28157;-56
2022/12/24 02:42:47;;;;;;;1.70;1.60;;;;;;;23.96;40.29;99444.19;1886771;75;28121;-52
2022/12/24 02:45:38;;;;;;;1.90;1.80;;;;;;;23.95;40.26;99449.36;1884666;75;28376;-58
2022/12/24 02:48:28;;;;;;;1.90;1.80;;;;;;;23.97;40.18;99454.91;1869110;75;28382;-56
2022/12/24 02:51:18;;;;;;;1.65;1.55;;;;;;;23.97;40.18;99463.66;1890840;75;28229;-56
2022/12/24 02:54:07;;;;;;;1.98;1.87;;;;;;;23.98;40.16;99460.70;1874732;75;28235;-55
2022/12/24 02:57:08;;;;;;;1.90;1.80;;;;;;;23.99;40.09;99469.20;1901187;75;28154;-57
2022/12/24 03:00:05;;;;;;;1.72;1.62;;;;;;;23.99;40.09;99469.20;1887701;75;28319;-58
2022/12/24 03:03:14;;;;;;;1.70;1.60;;;;;;;23.98;40.09;99462.61;1872467;75;31206;-57
2022/12/24 03:06:11;;;;;;;1.72;1.62;;;;;;;23.97;40.08;99467.25;1890356;75;28286;-56
2022/12/24 03:09:06;;;;;;;1.60;1.50;;;;;;;23.96;40.10;99482.06;1890608;75;28340;-55
2022/12/24 03:11:57;;;;;;;1.70;1.60;;;;;;;23.96;40.10;99482.59;1873623;75;36411;-56
2022/12/24 03:14:48;;;;;;;1.70;1.60;;;;;;;23.93;40.13;99468.83;1864235;75;28294;-57
2022/12/24 03:17:39;;;;;;;1.65;1.55;;;;;;;23.94;40.18;99460.06;1870251;75;28199;-59
2022/12/24 03:20:34;;;;;;;2.60;1.60;;;;;;;23.97;40.09;99472.73;1892492;74;28215;-57
2022/12/24 03:23:22;;;;;;;1.80;1.70;;;;;;;23.95;40.07;99468.04;1882981;75;28146;-55
2022/12/24 03:26:13;;;;;;;2.50;1.60;;;;;;;23.94;40.07;99462.24;1868357;75;28287;-57
2022/12/24 03:29:06;;;;;;;1.70;1.60;;;;;;;23.93;40.08;99466.08;1868470;76;28336;-59
2022/12/24 03:31:57;;;;;;;1.80;1.70;;;;;;;23.93;40.07;99474.84;1895975;75;28167;-59
2022/12/24 03:34:45;;;;;;;1.52;1.47;;;;;;;23.89;40.09;99462.70;1898142;75;28226;-56
2022/12/24 03:37:34;;;;;;;1.67;1.57;;;;;;;23.87;40.10;99460.21;1889100;74;28168;-55
2022/12/24 03:40:22;;;;;;;2.50;1.65;;;;;;;23.88;40.14;99452.79;1899740;75;28154;-56
2022/12/24 03:43:11;;;;;;;1.70;1.60;;;;;;;23.87;40.10;99456.62;1872181;75;28198;-57
2022/12/24 03:46:06;;;;;;;1.62;1.52;;;;;;;23.86;40.11;99461.27;1890501;75;28239;-58
2022/12/24 03:48:54;;;;;;;2.22;1.70;;;;;;;23.87;40.15;99458.84;1884359;75;28181;-59
2022/12/24 03:51:42;;;;;;;2.30;1.70;;;;;;;23.87;40.03;99455.25;1873672;75;28208;-55
2022/12/24 03:54:31;;;;;;;1.62;1.52;;;;;;;23.85;40.07;99453.30;1843106;76;28229;-55
2022/12/24 03:57:19;;;;;;;1.70;1.60;;;;;;;23.86;40.10;99450.30;1861499;76;28271;-55
2022/12/24 04:00:08;;;;;;;1.50;1.50;;;;;;;23.87;40.03;99430.56;1827954;78;28428;-54
2022/12/24 04:03:02;;;;;;;1.80;1.70;;;;;;;23.86;40.05;99438.48;1881488;75;28330;-56
2022/12/24 04:06:01;;;;;;;1.53;1.50;;;;;;;23.85;40.01;99439.58;1870625;74;28220;-54
2022/12/24 04:08:50;;;;;;;1.55;1.47;;;;;;;23.85;40.00;99432.73;1887461;74;28126;-59
2022/12/24 04:11:39;;;;;;;1.80;1.70;;;;;;;23.85;40.01;99432.73;1865873;74;28216;-59
2022/12/24 04:14:27;;;;;;;1.40;1.40;;;;;;;23.84;40.00;99427.77;1869809;75;30234;-58
2022/12/24 04:17:16;;;;;;;1.42;1.40;;;;;;;23.84;40.01;99424.19;1848158;75;28222;-55
2022/12/24 04:20:05;;;;;;;1.57;1.47;;;;;;;23.84;40.00;99421.44;1860467;74;28186;-55
2022/12/24 04:22:53;;;;;;;1.40;1.40;;;;;;;23.83;40.00;99427.99;1882819;75;28197;-56
2022/12/24 04:25:42;;;;;;;1.52;1.42;;;;;;;23.83;40.04;99422.51;1887924;75;28199;-59
2022/12/24 04:28:31;;;;;;;1.60;1.50;;;;;;;23.82;40.03;99420.86;1863434;75;28290;-58
2022/12/24 04:31:20;;;;;;;1.70;1.60;;;;;;;23.83;40.04;99419.23;1878101;75;28131;-58
2022/12/24 04:34:08;;;;;;;1.60;1.50;;;;;;;23.83;39.99;99422.51;1864010;75;28245;-59
2022/12/24 04:36:56;;;;;;;1.70;1.60;;;;;;;23.82;39.96;99420.86;1876331;75;28208;-59
2022/12/24 04:39:44;;;;;;;1.75;1.50;;;;;;;23.83;39.96;99418.39;1871869;74;27870;-56
2022/12/24 04:42:33;;;;;;;1.70;1.60;;;;;;;23.82;39.97;99415.38;1890393;75;28162;-58
2022/12/24 04:45:21;;;;;;;1.40;1.40;;;;;;;23.82;39.96;99418.12;1870947;75;28233;-56
2022/12/24 04:48:10;;;;;;;1.60;1.50;;;;;;;23.79;39.98;99421.34;1881280;75;28198;-58
2022/12/24 04:50:59;;;;;;;1.33;1.30;;;;;;;23.80;40.01;99412.89;1876414;75;28182;-53
2022/12/24 04:53:48;;;;;;;1.70;1.50;;;;;;;23.79;39.96;99413.95;1880878;75;28203;-57
2022/12/24 04:56:36;;;;;;;1.60;1.50;;;;;;;23.79;40.00;99421.34;1867542;75;28116;-57
2022/12/24 04:59:24;;;;;;;1.90;1.80;;;;;;;23.77;39.99;99416.64;1871220;74;28198;-56
2022/12/24 05:02:13;;;;;;;1.67;1.57;;;;;;;23.78;40.03;99408.72;1899441;75;28129;-58
2022/12/24 05:05:02;;;;;;;1.35;1.22;;;;;;;23.78;39.95;99412.27;1864569;76;38589;-54
2022/12/24 05:07:51;;;;;;;1.30;1.30;;;;;;;23.78;39.96;99424.61;1884775;75;28116;-58
2022/12/24 05:10:39;;;;;;;1.30;1.30;;;;;;;23.77;39.95;99424.34;1876273;75;28170;-59
2022/12/24 05:13:29;;;;;;;1.40;1.40;;;;;;;23.77;39.93;99425.70;1870827;74;28145;-59
2022/12/24 05:16:20;;;;;;;1.30;1.30;;;;;;;23.77;39.97;99435.84;1885821;74;28244;-57
2022/12/24 05:19:09;;;;;;;2.00;1.50;;;;;;;23.75;39.97;99436.09;1890670;75;28259;-55
2022/12/24 05:28:11;;;;;;;1.50;1.40;;;;;;;23.73;40.00;99416.84;1891960;75;28086;-58
2022/12/24 05:30:59;;;;;;;1.37;1.27;;;;;;;23.70;40.04;99429.13;1895980;75;28122;-52
2022/12/24 05:33:47;;;;;;;1.33;1.30;;;;;;;23.70;40.03;99438.73;1888784;75;28543;-57
2022/12/24 05:36:36;;;;;;;1.20;1.20;;;;;;;23.72;40.03;99443.95;1880927;74;28194;-57
2022/12/24 05:39:25;;;;;;;1.20;1.20;;;;;;;23.73;39.97;99447.02;1891332;75;28197;-58
2022/12/24 05:42:13;;;;;;;1.20;1.20;;;;;;;23.73;39.95;99443.73;1884750;75;28301;-60
2022/12/24 05:45:01;;;;;;;1.47;1.37;;;;;;;23.75;39.98;99446.22;1890665;75;28339;-57
2022/12/24 05:47:50;;;;;;;1.40;1.40;;;;;;;23.74;39.98;99452.77;1890806;74;28300;-54
2022/12/24 05:50:40;;;;;;;1.20;1.20;;;;;;;23.74;39.93;99463.75;1889787;74;28123;-53
2022/12/24 05:53:29;;;;;;;1.55;1.45;;;;;;;23.72;39.94;99464.53;1890672;75;28226;-58
2022/12/24 05:56:22;;;;;;;1.30;1.30;;;;;;;23.74;40.03;99461.00;1870351;75;28231;-58
2022/12/24 05:59:11;;;;;;;1.40;1.40;;;;;;;23.74;39.93;99463.21;1893297;74;28220;-58
2022/12/24 06:01:59;;;;;;;1.37;1.37;;;;;;;23.72;39.95;99463.16;1896676;75;28106;-59
2022/12/24 06:04:48;;;;;;;1.50;1.40;;;;;;;23.73;39.92;99466.20;1869776;75;28292;-58
2022/12/24 06:07:36;;;;;;;1.32;1.32;;;;;;;23.72;39.94;99455.77;1876788;75;28142;-59
2022/12/24 06:10:24;;;;;;;1.37;1.35;;;;;;;23.72;39.93;99447.55;1831919;76;28377;-57
2022/12/24 06:13:13;;;;;;;1.45;1.37;;;;;;;23.73;39.93;99445.64;1883842;75;28291;-54
2022/12/24 06:16:03;;;;;;;1.15;1.15;;;;;;;23.71;39.90;99443.13;1870417;75;28311;-56
2022/12/24 06:18:52;;;;;;;1.10;1.10;;;;;;;23.70;39.94;99455.72;1891986;75;28129;-59
2022/12/24 06:21:40;;;;;;;1.23;1.23;;;;;;;23.72;39.94;99464.53;1881363;75;28330;-59
2022/12/24 06:24:29;;;;;;;1.20;1.20;;;;;;;23.71;39.94;99453.28;1870872;75;28337;-59
2022/12/24 06:27:18;;;;;;;1.20;1.20;;;;;;;23.71;39.91;99447.80;1900021;75;28378;-60
2022/12/24 06:30:07;;;;;;;1.30;1.30;;;;;;;23.70;40.01;99457.09;1879173;75;28148;-58
2022/12/24 06:32:55;;;;;;;1.30;1.30;;;;;;;23.71;39.94;99451.34;1893434;75;28075;-59
2022/12/24 06:35:46;;;;;;;1.25;1.25;;;;;;;23.71;39.97;99434.08;1886041;75;28151;-58
2022/12/24 06:38:34;;;;;;;1.22;1.22;;;;;;;23.71;39.96;99421.73;1886180;75;28183;-54
2022/12/24 06:41:24;;;;;;;1.20;1.20;;;;;;;23.72;39.93;99432.45;1877243;74;28098;-55
2022/12/24 06:44:12;;;;;;;1.15;1.15;;;;;;;23.69;39.89;99432.94;1870802;74;28296;-55
2022/12/24 06:47:00;;;;;;;1.42;1.20;;;;;;;23.72;39.90;99426.97;1892096;75;28103;-59
2022/12/24 06:49:49;;;;;;;1.32;1.32;;;;;;;23.71;39.87;99425.30;1889556;75;28189;-57
2022/12/24 06:52:37;;;;;;;1.43;1.37;;;;;;;23.70;39.85;99418.69;1892877;75;28215;-59
2022/12/24 06:55:26;;;;;;;1.40;1.40;;;;;;;23.70;39.88;99402.23;1871643;75;28192;-59
2022/12/24 06:58:14;;;;;;;1.47;1.42;;;;;;;23.71;39.93;99403.91;1879087;75;28169;-59
2022/12/24 07:01:04;;;;;;;1.37;1.37;;;;;;;23.71;39.85;99396.50;1873918;74;28232;-55
2022/12/24 07:03:52;;;;;;;1.20;1.20;;;;;;;23.73;39.92;99401.75;1877932;75;28255;-57
2022/12/24 07:06:41;;;;;;;1.12;1.10;;;;;;;23.71;39.99;99399.23;1892880;75;28247;-56
2022/12/24 07:09:31;;;;;;;1.20;1.20;;;;;;;23.71;39.96;99393.75;1869019;75;28166;-57
2022/12/24 07:12:19;;;;;;;1.07;1.07;;;;;;;23.71;39.98;99390.20;1870848;75;28223;-59
2022/12/24 07:15:09;;;;;;;1.20;1.20;;;;;;;23.69;39.97;99390.42;1857296;75;28229;-54
2022/12/24 07:17:57;;;;;;;1.35;1.25;;;;;;;23.67;40.01;99390.38;1873736;75;28098;-55
2022/12/24 07:20:46;;;;;;;1.12;1.12;;;;;;;23.70;40.11;99388.52;1869671;75;28277;-56
2022/12/24 07:23:35;;;;;;;1.20;1.20;;;;;;;23.69;40.18;99377.24;1892639;75;28150;-55
2022/12/24 07:26:23;;;;;;;1.22;1.12;;;;;;;23.68;40.11;99381.08;1873734;75;28181;-60
2022/12/24 07:29:12;;;;;;;1.20;1.20;;;;;;;23.71;40.05;99388.83;1891390;75;28567;-61
2022/12/24 07:32:00;;;;;;;1.70;1.20;;;;;;;23.66;40.14;99389.56;1861990;75;32170;-59
2022/12/24 07:34:49;;;;;;;1.27;1.17;;;;;;;23.38;40.47;99394.45;1867877;75;32412;-59
2022/12/24 07:37:37;;;;;;;1.20;1.20;;;;;;;23.11;40.96;99391.08;1880287;75;28149;-59
2022/12/24 07:40:25;;;;;;;1.35;1.30;;;;;;;23.01;41.23;99401.27;1874994;75;28184;-62
2022/12/24 07:43:14;;;;;;;1.05;1.05;;;;;;;22.97;41.47;99391.87;1863096;75;28266;-61
2022/12/24 07:46:03;;;;;;;2.80;1.30;;;;;;;22.95;41.57;99393.18;1883920;74;28151;-60
2022/12/24 07:48:52;;;;;;;1.20;1.20;;;;;;;23.08;41.61;99397.06;1890061;75;28157;-62
2022/12/24 07:51:42;;;;;;;2.27;1.50;;;;;;;23.30;41.26;99405.77;1873008;75;28193;-62
2022/12/24 07:54:30;;;;;;;1.30;1.25;;;;;;;23.44;40.94;99408.27;1880294;75;28150;-63
2022/12/24 07:57:18;;;;;;;1.32;1.30;;;;;;;23.50;40.76;99414.17;1891420;75;28094;-61
2022/12/24 08:00:07;;;;;;;1.55;1.45;;;;;;;23.55;40.57;99414.28;1876421;75;28278;-59
2022/12/24 08:02:58;;;;;;;1.15;1.15;;;;;;;23.58;40.50;99412.41;1806805;78;28304;-60
2022/12/24 08:05:48;;;;;;;1.20;1.10;;;;;;;23.60;40.45;99404.23;1840854;77;28453;-58
2022/12/24 08:08:38;;;;;;;1.20;1.20;;;;;;;23.63;40.42;99396.06;1843554;76;28239;-59
2022/12/24 08:11:27;;;;;;;1.27;1.20;;;;;;;23.66;40.33;99398.33;1896526;75;28215;-60
2022/12/24 08:14:15;;;;;;;1.50;1.40;;;;;;;23.68;40.26;99392.05;1890662;75;28291;-60
2022/12/24 08:17:04;;;;;;;1.40;1.40;;;;;;;23.69;40.25;99410.99;1887360;75;28152;-60
2022/12/24 08:19:52;;;;;;;1.30;1.30;;;;;;;23.70;40.24;99416.79;1894740;75;28144;-60
2022/12/24 08:22:41;;;;;;;1.27;1.20;;;;;;;23.71;40.24;99423.11;1898469;75;28137;-59
2022/12/24 08:25:29;;;;;;;1.20;1.20;;;;;;;23.71;40.22;99411.58;1879826;75;28142;-61
2022/12/24 08:28:19;;;;;;;1.20;1.20;;;;;;;23.70;40.22;99394.84;1878670;75;28219;-60
2022/12/24 08:31:08;;;;;;;1.10;1.10;;;;;;;23.71;40.19;99399.80;1881571;75;39013;-59
2022/12/24 08:33:56;;;;;;;1.10;1.10;;;;;;;23.71;40.20;99400.61;1886184;75;28217;-60
2022/12/24 08:36:44;;;;;;;1.30;1.20;;;;;;;23.71;40.19;99406.66;1884434;75;28566;-60
2022/12/24 08:39:32;;;;;;;1.10;1.10;;;;;;;23.71;40.19;99410.20;1887038;75;28218;-60
2022/12/24 08:42:21;;;;;;;1.12;1.12;;;;;;;23.72;40.19;99417.38;1895116;75;28214;-60
2022/12/24 08:45:10;;;;;;;1.20;1.20;;;;;;;23.73;40.19;99416.31;1884855;75;28130;-60
2022/12/24 08:48:00;;;;;;;1.50;1.27;;;;;;;23.74;40.22;99410.27;1881540;75;28206;-61
2022/12/24 08:50:48;;;;;;;1.20;1.20;;;;;;;23.74;40.20;99406.14;1882494;75;28193;-60
2022/12/24 08:53:37;;;;;;;1.30;1.30;;;;;;;23.71;40.19;99397.06;1883526;75;28167;-61
2022/12/24 08:56:26;;;;;;;2.00;1.90;;;;;;;23.70;40.20;99399.49;1883373;75;28120;-60
2022/12/24 08:59:14;;;;;;;1.70;1.50;;;;;;;23.70;40.17;99401.70;1889361;74;28269;-59
2022/12/24 09:02:03;;;;;;;1.40;1.30;;;;;;;23.70;40.12;99398.13;1897010;75;39015;-63
2022/12/24 09:04:51;;;;;;;1.65;1.55;;;;;;;23.70;40.07;99391.27;1868966;76;28247;-61
2022/12/24 09:07:39;;;;;;;1.03;1.03;;;;;;;23.68;40.20;99403.86;1887196;75;28104;-59
2022/12/24 09:10:28;;;;;;;1.00;1.00;;;;;;;23.68;40.04;99404.39;1875101;75;28244;-62
2022/12/24 09:13:16;;;;;;;1.20;1.20;;;;;;;23.67;40.10;99391.22;1870327;75;31054;-61
2022/12/24 09:16:06;;;;;;;1.20;1.17;;;;;;;23.67;40.04;99379.41;1857676;75;28212;-63
2022/12/24 09:18:56;;;;;;;1.37;1.27;;;;;;;23.68;40.04;99385.20;1885506;75;28251;-62
2022/12/24 09:21:45;;;;;;;1.17;1.17;;;;;;;23.67;40.04;99378.88;1874041;75;28274;-61
2022/12/24 09:24:34;;;;;;;1.20;1.20;;;;;;;23.64;40.06;99381.28;1897303;75;28090;-63
2022/12/24 09:27:23;;;;;;;1.00;1.00;;;;;;;23.66;40.23;99385.98;1871497;75;38457;-55
2022/12/24 09:30:12;;;;;;;1.00;1.00;;;;;;;23.66;40.27;99388.19;1874779;75;28129;-57
2022/12/24 09:33:01;;;;;;;1.17;1.00;;;;;;;23.67;40.29;99398.06;1901218;75;28120;-62
2022/12/24 09:35:52;;;;;;;1.07;1.07;;;;;;;23.68;40.40;99400.28;1890154;75;28192;-63
2022/12/24 09:38:40;;;;;;;1.10;1.10;;;;;;;23.70;40.40;99402.23;1885873;75;28136;-61
2022/12/24 09:41:35;;;;;;;1.10;1.10;;;;;;;23.67;40.39;99402.71;1888733;75;28177;-66
2022/12/24 09:44:45;;;;;;;1.03;1.00;;;;;;;23.66;40.51;99406.55;1898883;75;28098;-65
2022/12/24 09:47:40;;;;;;;1.10;1.10;;;;;;;23.65;40.26;99396.64;1896757;74;28125;-64
2022/12/24 09:50:41;;;;;;;1.37;1.00;;;;;;;23.60;40.24;99403.39;1887441;75;28085;-49
2022/12/24 09:53:38;;;;;;;0.90;0.90;;;;;;;23.57;40.33;99407.45;1896670;75;28109;-50
2022/12/24 09:56:29;;;;;;;1.02;1.02;;;;;;;23.56;40.44;99408.55;1881066;75;28056;-51
2022/12/24 09:59:24;;;;;;;1.00;1.00;;;;;;;23.55;40.52;99404.13;1881736;75;28356;-49
2022/12/24 10:02:15;;;;;;;1.30;1.00;;;;;;;23.56;40.59;99410.45;1888775;74;28140;-51
2022/12/24 10:05:05;;;;;;;1.00;1.00;;;;;;;23.60;40.53;99412.98;1888504;75;28123;-49
2022/12/24 10:08:02;;;;;;;0.90;0.90;;;;;;;23.55;40.54;99415.09;1873981;75;28098;-54
2022/12/24 10:10:53;;;;;;;1.10;1.10;;;;;;;23.58;40.58;99408.29;1878555;75;28268;-50
2022/12/24 10:13:50;;;;;;;1.00;1.00;;;;;;;23.56;40.66;99414.03;1880472;75;28098;-52
2022/12/24 10:17:00;;;;;;;1.53;1.00;;;;;;;23.56;40.65;99414.03;1849908;75;28223;-54
2022/12/24 10:20:24;;;;;;;0.90;0.90;;;;;;;23.58;40.64;99395.95;1888983;75;28241;-54
2022/12/24 10:23:25;;;;;;;1.27;1.17;;;;;;;23.58;40.71;99392.67;1888477;75;28115;-53
2022/12/24 10:26:22;;;;;;;0.95;0.95;;;;;;;23.54;40.74;99385.19;1876976;75;28137;-54
2022/12/24 10:29:22;;;;;;;1.85;1.02;;;;;;;23.51;40.84;99381.55;1879048;75;28110;-56
2022/12/24 10:32:22;;;;;;;1.30;0.98;;;;;;;23.52;40.79;99375.84;1868056;75;28172;-52
2022/12/24 10:35:19;;;;;;;1.35;1.10;;;;;;;23.51;40.87;99382.39;1879866;75;28115;-58
2022/12/24 10:38:09;;;;;;;0.97;0.97;;;;;;;23.51;40.95;99372.80;1876158;74;28145;-57
2022/12/24 10:41:00;;;;;;;1.60;1.00;;;;;;;23.54;40.88;99374.22;1875086;74;28184;-54
2022/12/24 10:43:49;;;;;;;0.80;0.80;;;;;;;23.58;40.82;99379.50;1865285;75;28573;-54
2022/12/24 10:46:40;;;;;;;1.70;0.93;;;;;;;23.59;40.82;99376.53;1877847;75;28048;-58
2022/12/24 10:49:50;;;;;;;1.00;1.00;;;;;;;23.59;40.72;99375.70;1892733;74;28168;-56
2022/12/24 10:52:41;;;;;;;1.10;0.90;;;;;;;23.60;40.72;99376.81;1880328;75;28279;-56
2022/12/24 10:55:29;;;;;;;0.90;0.90;;;;;;;23.56;40.76;99374.27;1870072;75;28203;-53
2022/12/24 10:58:20;;;;;;;1.00;1.00;;;;;;;23.56;40.80;99370.16;1869069;75;28242;-54
2022/12/24 11:01:08;;;;;;;1.00;1.00;;;;;;;23.58;40.78;99365.79;1888706;75;28078;-57
2022/12/24 11:04:01;;;;;;;1.10;0.90;;;;;;;23.58;40.77;99364.42;1889435;75;28548;-53
2022/12/24 11:06:58;;;;;;;1.30;1.00;;;;;;;23.59;40.78;99367.47;1901089;75;28092;-59
2022/12/24 11:09:55;;;;;;;1.67;1.17;;;;;;;23.59;40.77;99366.94;1869828;75;28145;-54
2022/12/24 11:12:49;;;;;;;0.98;0.98;;;;;;;23.57;40.77;99367.69;1886454;74;28572;-50
2022/12/24 11:15:38;;;;;;;0.80;0.80;;;;;;;23.59;40.77;99363.36;1886623;74;28225;-49
2022/12/24 11:18:26;;;;;;;0.90;0.85;;;;;;;23.60;40.71;99354.03;1886823;74;28168;-53
2022/12/24 11:21:20;;;;;;;1.70;1.00;;;;;;;23.58;40.70;99352.92;1815846;78;28281;-54
2022/12/24 11:24:17;;;;;;;1.20;1.00;;;;;;;23.56;40.65;99356.98;1890738;75;28189;-58
2022/12/24 11:27:24;;;;;;;1.60;1.00;;;;;;;23.59;40.70;99361.98;1894629;75;28409;-55
2022/12/24 11:30:25;;;;;;;2.72;1.10;;;;;;;23.57;40.75;99355.92;1868288;75;28163;-53
2022/12/24 11:33:17;;;;;;;0.90;0.90;;;;;;;23.55;40.82;99347.91;1887637;75;28169;-56
2022/12/24 11:36:08;;;;;;;0.93;0.85;;;;;;;23.54;40.83;99335.83;1886004;75;28250;-54
2022/12/24 11:38:59;;;;;;;1.02;0.90;;;;;;;23.55;40.87;99341.06;1879194;75;28128;-56
2022/12/24 11:41:47;;;;;;;1.20;1.10;;;;;;;23.56;40.82;99334.52;1884056;75;28190;-54
2022/12/24 11:44:39;;;;;;;0.93;0.93;;;;;;;23.58;40.79;99327.41;1886530;75;28163;-55
2022/12/24 11:47:36;;;;;;;1.00;1.00;;;;;;;23.58;40.82;99320.55;1881627;75;28177;-54
2022/12/24 11:50:30;;;;;;;1.23;1.10;;;;;;;23.57;40.77;99312.85;1879128;75;28310;-57
2022/12/24 11:53:22;;;;;;;1.00;1.00;;;;;;;23.57;40.81;99311.48;1888361;75;28586;-54
2022/12/24 11:56:19;;;;;;;1.20;0.90;;;;;;;23.56;40.75;99306.25;1887721;75;28235;-54
2022/12/24 11:59:31;;;;;;;0.80;0.80;;;;;;;23.55;40.83;99304.61;1891080;75;28143;-54
2022/12/24 12:02:35;;;;;;;0.80;0.80;;;;;;;23.54;40.82;99311.16;1889674;75;28060;-56
2022/12/24 12:05:35;;;;;;;1.00;1.00;;;;;;;23.54;40.82;99307.05;1879777;75;28187;-51
2022/12/24 12:08:25;;;;;;;0.90;0.90;;;;;;;23.54;40.83;99302.93;1882854;75;28271;-58
2022/12/24 12:11:14;;;;;;;0.90;0.90;;;;;;;23.53;40.82;99307.58;1880363;75;28194;-53
2022/12/24 12:14:05;;;;;;;1.60;1.00;;;;;;;23.52;40.81;99300.98;1882735;74;28208;-51
2022/12/24 12:17:08;;;;;;;1.90;0.80;;;;;;;23.53;40.84;99308.11;1870660;75;28234;-50
2022/12/24 12:20:15;;;;;;;0.90;0.90;;;;;;;23.53;40.84;99305.36;1879209;75;28226;-48
2022/12/24 12:23:09;;;;;;;1.82;1.00;;;;;;;23.56;40.84;99304.89;1856987;75;28204;-50
2022/12/24 12:26:01;;;;;;;1.30;0.93;;;;;;;23.52;40.92;99299.61;1863192;75;28245;-47
2022/12/24 12:29:16;;;;;;;2.60;0.90;;;;;;;23.54;40.91;99288.69;1862579;75;28201;-51
